Time;durP1;ratioP1;P1;durP2;ratioP2;P2;SDS_P1;SDS_P2;PMS_P1;PMS_P2;Temp;Humidity;BMP_temperature;BMP_pressure;BME280_temperature;BME280_humidity;BME280_pressure;Samples;Min_cycle;Max_cycle;Signal;HPM_P1;HPM_P2
2023/07/11 00:02:32;;;;;;;15.35;6.68;;;;;;;29.23;51.84;100887.44;5035245;28;66584;-48
2023/07/11 00:05:04;;;;;;;7.18;6.68;;;;;;;29.20;52.34;100875.19;5030476;28;70186;-46
2023/07/11 00:07:35;;;;;;;18.90;14.68;;;;;;;29.40;63.66;100897.59;5032775;28;66707;-44
2023/07/11 00:10:09;;;;;;;17.17;14.32;;;;;;;29.44;73.34;100914.22;5033451;28;70199;-45
2023/07/11 00:12:41;;;;;;;23.65;13.85;;;;;;;29.54;73.84;100903.00;5036601;28;66645;-45
2023/07/11 00:15:14;;;;;;;28.23;19.65;;;;;;;29.65;72.25;100905.09;5036782;28;70022;-44
2023/07/11 00:17:47;;;;;;;44.35;28.65;;;;;;;29.31;74.24;100839.44;5030134;28;66142;-44
2023/07/11 00:20:19;;;;;;;50.25;35.85;;;;;;;29.80;75.09;100908.34;5013184;28;69876;-44
2023/07/11 00:22:51;;;;;;;52.20;33.45;;;;;;;29.88;75.36;100910.00;5031949;28;65732;-46
2023/07/11 00:25:22;;;;;;;37.08;27.52;;;;;;;29.83;76.44;100897.13;5030358;28;70329;-45
2023/07/11 00:27:53;;;;;;;29.20;23.13;;;;;;;29.97;75.66;100907.91;5037031;28;66054;-43
2023/07/11 00:30:26;;;;;;;30.17;22.88;;;;;;;30.04;76.57;100911.41;5032596;28;69707;-45
2023/07/11 00:32:59;;;;;;;32.13;20.73;;;;;;;29.83;76.72;100875.47;5031871;28;66968;-45
2023/07/11 00:35:30;;;;;;;19.20;17.33;;;;;;;29.94;77.36;100878.56;5038277;28;70771;-44
2023/07/11 00:38:01;;;;;;;22.30;16.27;;;;;;;30.12;74.62;100903.06;5034851;28;66667;-45
2023/07/11 00:40:32;;;;;;;20.08;15.18;;;;;;;30.11;75.48;100901.38;5032624;28;69384;-44
2023/07/11 00:43:03;;;;;;;16.50;13.83;;;;;;;30.18;75.92;100907.59;5033341;28;66439;-46
2023/07/11 00:45:55;;;;;;;17.53;12.73;;;;;;;30.15;76.54;100910.75;5034873;28;70143;-44
2023/07/11 00:48:28;;;;;;;17.75;12.35;;;;;;;30.22;76.57;100906.16;5036754;28;66148;-44
2023/07/11 00:50:59;;;;;;;12.95;11.82;;;;;;;30.25;76.29;100908.41;5023726;28;69502;-44
2023/07/11 00:53:31;;;;;;;13.18;11.75;;;;;;;30.13;74.27;100874.94;5039611;28;66372;-44
2023/07/11 00:56:06;;;;;;;11.93;10.82;;;;;;;29.76;76.49;100815.22;5037625;28;70187;-45
2023/07/11 00:58:41;;;;;;;11.88;10.63;;;;;;;30.25;71.85;100867.84;5033166;28;65664;-48
2023/07/11 01:01:14;;;;;;;10.10;9.10;;;;;;;30.46;69.67;100891.03;5037280;28;69693;-47
2023/07/11 01:03:51;;;;;;;11.13;8.57;;;;;;;30.08;68.91;100828.78;5039806;28;66278;-49
2023/07/11 01:06:26;;;;;;;15.80;9.20;;;;;;;30.14;68.46;100833.31;5040434;28;70250;-48
2023/07/11 01:08:59;;;;;;;8.73;7.93;;;;;;;30.31;68.26;100844.50;5039568;28;66235;-48
2023/07/11 01:11:32;;;;;;;10.02;8.63;;;;;;;30.68;67.71;100905.06;5039147;28;70435;-49
2023/07/11 01:14:03;;;;;;;8.57;7.60;;;;;;;30.70;67.15;100908.41;5034047;28;66618;-49
2023/07/11 01:16:43;;;;;;;9.07;8.38;;;;;;;30.27;67.42;100846.81;5035350;28;70012;-48
2023/07/11 01:19:15;;;;;;;8.68;7.82;;;;;;;30.75;67.26;100909.59;5041160;28;66370;-48
2023/07/11 01:21:46;;;;;;;10.23;7.50;;;;;;;30.76;67.28;100905.84;5040141;28;70041;-49
2023/07/11 01:24:17;;;;;;;8.43;7.85;;;;;;;30.80;66.88;100907.13;5039214;28;67043;-49
2023/07/11 01:26:48;;;;;;;9.02;7.30;;;;;;;30.80;66.77;100898.97;5032155;28;70168;-49
2023/07/11 01:29:21;;;;;;;8.05;7.35;;;;;;;30.85;66.44;100904.56;5041496;28;67131;-48
2023/07/11 01:31:52;;;;;;;11.50;7.45;;;;;;;30.85;66.31;100904.56;5036708;28;70076;-50
2023/07/11 01:34:24;;;;;;;7.30;6.70;;;;;;;30.88;66.60;100909.56;5035030;28;67396;-49
2023/07/11 01:36:55;;;;;;;;;;;;;;;30.53;67.99;100907.25;5034318;28;69428;-48
2023/07/11 01:39:26;;;;;;;6.70;6.20;;;;;;;30.87;66.15;100908.72;5041672;28;66101;-47
2023/07/11 01:41:57;;;;;;;6.50;6.03;;;;;;;30.90;65.85;100902.03;5041087;28;69668;-47
2023/07/11 01:44:28;;;;;;;7.20;6.70;;;;;;;30.89;66.10;100898.47;5037321;28;65523;-49
2023/07/11 01:47:02;;;;;;;7.50;6.88;;;;;;;30.42;65.87;100813.19;5039130;28;70355;-48
2023/07/11 01:49:33;;;;;;;8.32;6.60;;;;;;;30.95;65.96;100902.19;5039605;28;65775;-49
2023/07/11 01:52:23;;;;;;;6.33;5.93;;;;;;;31.02;65.76;100916.53;5039465;28;70455;-49
2023/07/11 01:54:54;;;;;;;6.80;6.32;;;;;;;31.00;65.45;100906.94;5042119;28;66239;-48
2023/07/11 01:57:25;;;;;;;6.63;5.83;;;;;;;30.63;65.50;100839.91;5038269;28;69441;-48
2023/07/11 01:59:57;;;;;;;6.50;6.07;;;;;;;31.09;65.51;100905.63;5036010;28;66321;-48
2023/07/11 02:02:28;;;;;;;5.93;5.53;;;;;;;31.10;65.37;100902.72;5035806;28;70270;-49
2023/07/11 02:04:59;;;;;;;6.93;5.80;;;;;;;31.12;65.56;100906.03;5036058;28;66748;-49
2023/07/11 02:07:30;;;;;;;5.88;5.40;;;;;;;30.69;65.24;100836.31;5037796;28;69884;-49
2023/07/11 02:10:04;;;;;;;6.57;5.82;;;;;;;31.13;65.23;100888.72;5034913;28;65557;-47
2023/07/11 02:12:35;;;;;;;5.43;5.13;;;;;;;31.22;65.18;100904.69;5037012;28;69632;-48
2023/07/11 02:15:07;;;;;;;6.57;6.07;;;;;;;31.21;65.17;100901.16;5026535;28;66706;-49
2023/07/11 02:17:38;;;;;;;6.20;5.70;;;;;;;31.12;64.77;100889.78;5039948;28;70343;-49
2023/07/11 02:20:11;;;;;;;5.53;5.13;;;;;;;31.19;64.92;100897.00;5038160;28;66483;-48
2023/07/11 02:22:42;;;;;;;5.95;5.55;;;;;;;31.26;64.85;100900.47;5036156;28;70259;-49
2023/07/11 02:25:14;;;;;;;6.25;5.72;;;;;;;31.27;64.58;100899.44;5030223;28;65027;-50
2023/07/11 02:27:44;;;;;;;6.97;6.43;;;;;;;31.37;64.47;100916.88;5040111;28;70872;-49
2023/07/11 02:30:17;;;;;;;5.72;5.43;;;;;;;31.41;64.76;100913.72;5041212;28;65536;-49
2023/07/11 02:32:47;;;;;;;6.43;5.93;;;;;;;31.40;64.63;100902.06;5033689;28;70489;-48
2023/07/11 02:35:18;;;;;;;5.53;5.22;;;;;;;31.47;64.29;100905.53;5033467;28;66256;-49
2023/07/11 02:37:49;;;;;;;5.47;5.17;;;;;;;31.47;64.26;100902.81;5028708;28;70253;-49
2023/07/11 02:40:20;;;;;;;5.68;5.32;;;;;;;31.52;64.22;100905.69;5039595;28;67125;-50
2023/07/11 02:42:51;;;;;;;5.47;5.15;;;;;;;31.56;64.37;100900.63;5028668;28;69255;-50
2023/07/11 02:45:23;;;;;;;6.13;5.72;;;;;;;31.57;64.37;100903.13;5037289;28;67266;-48
2023/07/11 02:47:54;;;;;;;6.15;5.68;;;;;;;31.60;64.18;100894.53;5038404;28;69540;-48
2023/07/11 02:50:25;;;;;;;6.38;5.88;;;;;;;31.65;64.09;100898.44;5036923;28;65398;-50
2023/07/11 02:52:56;;;;;;;5.63;5.30;;;;;;;31.65;64.11;100899.31;5030160;28;70505;-48
2023/07/11 02:55:26;;;;;;;7.15;5.50;;;;;;;31.69;64.13;100894.25;5035682;28;66028;-50
2023/07/11 02:57:57;;;;;;;6.03;5.63;;;;;;;31.71;63.68;100897.56;5033879;28;70407;-49
2023/07/11 03:00:28;;;;;;;5.70;5.30;;;;;;;31.76;63.70;100894.97;5031441;28;65996;-49
2023/07/11 03:02:59;;;;;;;5.60;5.20;;;;;;;31.63;64.09;100868.03;5034883;28;69619;-51
2023/07/11 03:05:31;;;;;;;5.87;5.53;;;;;;;31.80;63.78;100885.34;5021123;28;66366;-48
2023/07/11 03:08:01;;;;;;;5.50;5.13;;;;;;;31.82;63.42;100888.69;5030689;28;69347;-48
2023/07/11 03:10:34;;;;;;;5.72;5.30;;;;;;;31.30;63.53;100796.00;5030968;28;65519;-49
2023/07/11 03:13:05;;;;;;;5.32;5.03;;;;;;;31.90;63.59;100882.94;5024292;28;69757;-47
2023/07/11 03:15:38;;;;;;;5.15;4.85;;;;;;;31.91;63.63;100878.34;5032473;28;65726;-49
2023/07/11 03:18:11;;;;;;;4.80;4.50;;;;;;;31.95;63.34;100883.09;5038484;28;69946;-48
2023/07/11 03:20:43;;;;;;;8.23;4.43;;;;;;;31.97;63.46;100881.00;5030614;28;66726;-48
2023/07/11 03:23:15;;;;;;;4.75;4.45;;;;;;;31.94;63.40;100876.03;5029345;28;70318;-48
2023/07/11 03:25:46;;;;;;;5.28;4.88;;;;;;;32.00;63.20;100869.69;5031858;28;66962;-48
2023/07/11 03:28:17;;;;;;;4.57;4.27;;;;;;;32.01;63.05;100868.66;5032649;28;70270;-48
2023/07/11 03:30:51;;;;;;;4.82;4.43;;;;;;;32.04;62.96;100859.22;5035187;28;65717;-49
2023/07/11 03:33:22;;;;;;;4.90;4.60;;;;;;;32.02;62.95;100853.19;5035785;28;69571;-48
2023/07/11 03:35:53;;;;;;;4.72;4.32;;;;;;;31.67;62.87;100798.72;5035143;28;66242;-48
2023/07/11 03:38:24;;;;;;;4.63;4.32;;;;;;;32.11;62.85;100864.56;5021384;28;70156;-48
2023/07/11 03:40:55;;;;;;;5.95;4.03;;;;;;;31.89;62.70;100812.63;5029449;28;66720;-51
2023/07/11 03:43:26;;;;;;;5.10;4.60;;;;;;;32.18;62.49;100859.84;5025405;28;70164;-48
2023/07/11 03:45:57;;;;;;;4.60;4.27;;;;;;;32.19;62.89;100856.91;5028335;28;65223;-48
2023/07/11 03:48:29;;;;;;;4.87;4.47;;;;;;;32.06;62.74;100835.38;5031164;28;69642;-49
2023/07/11 03:51:01;;;;;;;4.13;3.83;;;;;;;31.94;62.31;100810.91;5031532;28;65663;-48
2023/07/11 03:53:31;;;;;;;4.65;4.32;;;;;;;32.26;62.40;100845.97;5024526;28;70706;-48
2023/07/11 03:56:05;;;;;;;4.32;3.92;;;;;;;32.28;62.44;100833.00;5035988;28;66298;-48
2023/07/11 03:58:36;;;;;;;3.97;3.78;;;;;;;32.30;62.16;100830.06;5025706;28;70253;-47
2023/07/11 04:01:07;;;;;;;4.67;4.03;;;;;;;32.33;62.39;100837.75;5034488;28;65475;-48
2023/07/11 04:03:39;;;;;;;4.53;4.20;;;;;;;32.27;62.43;100825.91;5029275;28;70612;-49
2023/07/11 04:06:10;;;;;;;4.63;3.92;;;;;;;32.36;62.27;100823.69;5031502;28;65716;-49
2023/07/11 04:08:43;;;;;;;6.35;4.07;;;;;;;32.40;62.32;100825.72;5036374;28;70514;-48
2023/07/11 04:11:14;;;;;;;3.72;3.42;;;;;;;32.42;62.03;100812.72;5030760;28;66824;-47
2023/07/11 04:13:45;;;;;;;4.47;4.17;;;;;;;32.43;62.10;100814.41;5035360;28;69411;-48
2023/07/11 04:16:17;;;;;;;4.00;3.70;;;;;;;32.24;62.09;100782.97;5033475;28;66535;-48
2023/07/11 04:18:47;;;;;;;3.80;3.60;;;;;;;32.47;62.21;100815.59;5034497;28;70630;-48
2023/07/11 04:21:19;;;;;;;3.63;3.43;;;;;;;32.50;61.97;100819.75;5031550;28;66278;-47
2023/07/11 04:23:50;;;;;;;4.18;3.80;;;;;;;32.52;61.88;100812.19;5027609;28;69353;-47
2023/07/11 04:26:21;;;;;;;3.57;3.33;;;;;;;32.55;61.72;100814.44;5033400;28;66730;-47
2023/07/11 04:28:52;;;;;;;4.17;3.77;;;;;;;32.57;61.83;100806.91;5039811;28;69996;-49
2023/07/11 04:31:25;;;;;;;3.85;3.55;;;;;;;32.62;61.65;100806.19;5025925;28;65714;-47
2023/07/11 04:33:56;;;;;;;4.07;3.78;;;;;;;32.52;61.80;100784.22;5036339;28;69112;-48
2023/07/11 04:36:28;;;;;;;4.07;3.65;;;;;;;32.54;61.42;100793.78;5034677;28;66284;-48
2023/07/11 04:38:59;;;;;;;3.15;2.95;;;;;;;32.65;61.74;100789.41;5039549;28;70414;-48
2023/07/11 04:41:30;;;;;;;3.53;3.23;;;;;;;32.67;61.68;100787.31;5035340;28;66232;-48
2023/07/11 04:44:00;;;;;;;12.95;3.30;;;;;;;32.71;61.34;100796.66;5029684;28;70023;-48
2023/07/11 04:46:32;;;;;;;3.30;3.10;;;;;;;32.72;61.39;100788.25;5034423;28;66491;-49
2023/07/11 04:49:03;;;;;;;3.38;3.17;;;;;;;32.75;61.01;100789.66;5028757;28;70037;-47
2023/07/11 04:51:34;;;;;;;4.55;3.55;;;;;;;32.37;61.06;100717.56;5032926;28;65299;-47
2023/07/11 04:54:05;;;;;;;3.65;3.45;;;;;;;32.74;61.16;100774.44;5027033;28;70012;-48
2023/07/11 04:56:40;;;;;;;4.10;2.87;;;;;;;32.81;61.17;100771.59;5031079;28;67119;-48
2023/07/11 04:59:11;;;;;;;2.72;2.53;;;;;;;32.82;60.99;100776.81;5035523;28;70074;-48
2023/07/11 05:01:42;;;;;;;2.92;2.72;;;;;;;32.84;61.04;100768.41;5035951;28;66474;-48
2023/07/11 05:04:13;;;;;;;3.25;2.95;;;;;;;32.66;61.11;100731.34;5037940;28;69644;-48
2023/07/11 05:06:47;;;;;;;3.67;3.37;;;;;;;32.87;60.96;100760.59;5031664;28;66306;-47
2023/07/11 05:09:19;;;;;;;3.15;2.95;;;;;;;32.77;60.86;100737.84;5029093;28;70449;-48
2023/07/11 05:11:51;;;;;;;3.17;2.88;;;;;;;32.81;60.50;100734.38;5031205;28;66122;-48
2023/07/11 05:14:23;;;;;;;2.83;2.53;;;;;;;32.98;60.69;100760.84;5025652;28;70043;-48
2023/07/11 05:16:54;;;;;;;2.90;2.70;;;;;;;32.94;60.68;100750.44;5035702;28;65684;-49
2023/07/11 05:19:25;;;;;;;2.47;2.38;;;;;;;33.00;60.51;100747.88;5034058;28;70186;-47
2023/07/11 05:21:56;;;;;;;5.73;2.83;;;;;;;33.04;60.54;100743.63;5024485;28;65647;-47
2023/07/11 05:24:29;;;;;;;2.53;2.33;;;;;;;32.86;60.47;100715.50;5030734;28;70353;-47
2023/07/11 05:27:00;;;;;;;2.67;2.47;;;;;;;33.05;60.46;100737.13;5035491;28;66950;-48
2023/07/11 05:29:33;;;;;;;5.75;2.38;;;;;;;33.11;60.38;100738.88;5034889;28;70111;-48
2023/07/11 05:32:05;;;;;;;2.38;2.15;;;;;;;33.17;60.27;100732.50;5024271;28;66115;-48
2023/07/11 05:34:36;;;;;;;2.67;2.47;;;;;;;33.18;60.05;100728.69;5034007;28;69403;-47
2023/07/11 05:37:07;;;;;;;5.03;2.20;;;;;;;33.12;59.91;100725.03;5025956;28;66741;-48
2023/07/11 05:39:38;;;;;;;2.53;2.00;;;;;;;33.21;59.88;100717.38;5040062;28;69396;-48
2023/07/11 05:42:10;;;;;;;2.77;2.57;;;;;;;33.18;59.89;100706.94;5037132;28;67379;-48
2023/07/11 05:44:41;;;;;;;1.80;1.70;;;;;;;33.20;59.80;100693.94;5032811;28;69957;-49
2023/07/11 05:47:12;;;;;;;2.60;2.25;;;;;;;33.33;59.75;100709.19;5032197;28;64950;-49
2023/07/11 05:49:43;;;;;;;3.08;2.63;;;;;;;33.35;59.61;100697.00;5041279;28;70125;-52
2023/07/11 05:52:14;;;;;;;2.50;2.30;;;;;;;33.20;59.80;100663.25;5038922;28;65840;-48
2023/07/11 05:54:45;;;;;;;2.22;2.13;;;;;;;33.41;59.49;100694.38;5036202;28;70022;-48
2023/07/11 05:57:17;;;;;;;2.22;2.05;;;;;;;33.41;59.32;100688.94;5029868;28;65957;-49
2023/07/11 05:59:47;;;;;;;2.20;2.00;;;;;;;33.38;59.59;100680.19;5030236;28;70569;-48
2023/07/11 06:02:19;;;;;;;1.77;1.67;;;;;;;33.49;59.41;100680.38;5037190;28;67515;-48
2023/07/11 06:04:49;;;;;;;2.30;2.10;;;;;;;33.52;59.34;100685.34;5038111;28;69588;-49
2023/07/11 06:07:22;;;;;;;1.80;1.70;;;;;;;33.55;59.40;100677.56;5026728;28;65414;-51
2023/07/11 06:09:53;;;;;;;1.80;1.67;;;;;;;33.60;59.21;100679.56;5039371;28;70749;-48
2023/07/11 06:12:26;;;;;;;1.80;1.70;;;;;;;33.63;59.11;100673.63;5031031;28;66249;-49
2023/07/11 06:14:57;;;;;;;2.22;2.03;;;;;;;33.66;59.27;100672.31;5035433;28;70140;-48
2023/07/11 06:17:28;;;;;;;2.05;1.85;;;;;;;33.67;58.88;100676.66;5033204;28;67771;-47
2023/07/11 06:19:59;;;;;;;1.60;1.50;;;;;;;33.70;58.75;100671.56;5034648;28;69717;-49
2023/07/11 06:22:31;;;;;;;1.88;1.70;;;;;;;33.65;58.78;100646.16;5034680;28;65244;-48
2023/07/11 06:25:02;;;;;;;2.13;2.03;;;;;;;33.73;58.64;100652.03;5034743;28;70492;-48
2023/07/11 06:27:33;;;;;;;1.65;1.48;;;;;;;33.77;58.53;100655.91;5029836;28;65622;-48
2023/07/11 06:30:05;;;;;;;1.80;1.70;;;;;;;33.85;58.47;100656.56;5032692;28;69155;-48
2023/07/11 06:32:37;;;;;;;1.98;1.80;;;;;;;33.89;58.75;100653.13;5030765;28;66180;-48
2023/07/11 06:35:08;;;;;;;1.40;1.30;;;;;;;33.87;58.67;100644.38;5041157;28;70507;-47
2023/07/11 06:37:39;;;;;;;4.45;1.63;;;;;;;33.96;58.33;100642.06;5025656;28;65645;-49
2023/07/11 06:40:10;;;;;;;1.60;1.50;;;;;;;33.96;58.12;100636.63;5034202;28;70682;-48
2023/07/11 06:42:42;;;;;;;1.60;1.50;;;;;;;34.02;58.40;100620.16;5041050;28;66113;-49
2023/07/11 06:45:12;;;;;;;1.45;1.27;;;;;;;34.08;57.94;100629.25;5035331;28;69781;-48
2023/07/11 06:47:43;;;;;;;1.80;1.70;;;;;;;34.05;58.23;100613.41;5032822;28;65668;-48
2023/07/11 06:50:14;;;;;;;3.50;1.70;;;;;;;34.14;58.37;100628.25;5032301;28;70048;-47
2023/07/11 06:52:48;;;;;;;3.88;1.77;;;;;;;34.09;57.83;100600.94;5036857;28;65644;-48
2023/07/11 06:55:19;;;;;;;1.58;1.48;;;;;;;34.24;57.56;100611.22;5039281;28;70076;-48
2023/07/11 06:57:50;;;;;;;1.57;1.20;;;;;;;33.87;58.03;100542.88;5038508;28;66023;-47
2023/07/11 07:00:21;;;;;;;1.40;1.30;;;;;;;34.30;57.35;100593.91;5035842;28;69689;-47
2023/07/11 07:02:52;;;;;;;2.20;1.27;;;;;;;34.37;57.62;100604.63;5037025;28;67751;-47
2023/07/11 07:05:23;;;;;;;1.42;1.33;;;;;;;34.34;57.15;100584.16;5030722;28;69853;-48
2023/07/11 07:07:55;;;;;;;1.45;1.35;;;;;;;34.47;57.17;100597.41;5034523;28;69228;-48
2023/07/11 07:10:45;;;;;;;1.90;1.70;;;;;;;34.34;57.50;100562.38;5036196;28;70382;-48
2023/07/11 07:13:18;;;;;;;1.55;1.45;;;;;;;34.55;57.63;100585.25;5024478;28;65419;-47
2023/07/11 07:15:54;;;;;;;1.73;1.25;;;;;;;34.59;57.15;100591.88;5030853;28;70281;-47
2023/07/11 07:18:27;;;;;;;2.72;1.02;;;;;;;34.08;56.93;100471.38;5026625;28;66814;-49
2023/07/11 07:20:59;;;;;;;1.38;1.27;;;;;;;34.65;57.07;100558.16;5029449;28;70260;-47
2023/07/11 07:23:33;;;;;;;1.80;1.70;;;;;;;34.70;56.75;100555.50;5027789;28;65473;-47
2023/07/11 07:26:05;;;;;;;2.25;1.40;;;;;;;34.73;56.63;100547.91;5031881;28;70566;-48
2023/07/11 07:28:36;;;;;;;1.30;1.17;;;;;;;34.74;56.60;100538.66;5021258;28;66728;-49
2023/07/11 07:31:07;;;;;;;3.08;1.63;;;;;;;34.79;56.83;100541.44;5033685;28;69748;-47
2023/07/11 07:33:40;;;;;;;1.48;1.38;;;;;;;34.82;56.48;100543.66;5026752;28;66464;-48
2023/07/11 07:36:13;;;;;;;1.33;1.20;;;;;;;34.32;57.02;100466.50;5032966;28;70602;-48
2023/07/11 07:38:44;;;;;;;2.28;1.83;;;;;;;34.83;56.53;100534.41;5034989;28;66291;-50
2023/07/11 07:41:15;;;;;;;1.58;1.27;;;;;;;34.84;56.60;100534.13;5034885;28;69854;-48
2023/07/11 07:43:47;;;;;;;1.90;1.27;;;;;;;34.85;56.49;100524.91;5034238;28;65779;-48
2023/07/11 07:46:19;;;;;;;2.67;1.58;;;;;;;34.46;56.33;100453.31;5022628;28;70491;-48
2023/07/11 07:48:50;;;;;;;1.70;1.40;;;;;;;34.92;56.89;100513.78;5028089;28;65957;-48
2023/07/11 07:51:21;;;;;;;1.35;1.25;;;;;;;34.88;56.70;100512.66;5032719;28;69978;-49
2023/07/11 07:53:52;;;;;;;3.00;1.50;;;;;;;34.93;56.51;100515.44;5030598;28;66419;-49
2023/07/11 07:56:24;;;;;;;1.65;1.20;;;;;;;34.96;56.40;100523.09;5035294;28;70064;-49
2023/07/11 07:58:55;;;;;;;;;;;;;;;34.74;56.57;100522.31;5030415;28;66162;-48
2023/07/11 08:01:26;;;;;;;6.05;1.48;;;;;;;34.91;56.58;100517.59;5031588;28;70626;-48
2023/07/11 08:03:57;;;;;;;1.30;1.20;;;;;;;34.99;56.48;100525.28;5038608;28;67058;-52
2023/07/11 08:06:28;;;;;;;;;;;;;;;34.80;56.67;100526.72;5024725;28;70566;-48
2023/07/11 08:08:59;;;;;;;1.95;1.75;;;;;;;34.88;56.23;100496.28;5036342;28;66123;-48
2023/07/11 08:11:30;;;;;;;1.40;1.30;;;;;;;34.97;56.46;100505.66;5034621;28;70421;-48
2023/07/11 08:14:02;;;;;;;1.35;1.25;;;;;;;35.03;56.16;100520.16;5036315;28;65725;-48
2023/07/11 08:16:33;;;;;;;1.58;1.33;;;;;;;35.04;56.42;100521.81;5034920;28;69422;-48
2023/07/11 08:19:06;;;;;;;3.13;1.83;;;;;;;35.00;55.58;100515.25;5033063;28;66331;-48
2023/07/11 08:21:37;;;;;;;1.58;1.48;;;;;;;35.03;56.22;100515.53;5032474;28;70571;-49
2023/07/11 08:24:09;;;;;;;2.42;1.40;;;;;;;34.99;55.60;100508.94;5031342;28;65599;-49
2023/07/11 08:26:40;;;;;;;3.38;1.58;;;;;;;35.04;56.45;100525.34;5029405;28;70086;-48
2023/07/11 08:29:12;;;;;;;1.33;1.20;;;;;;;35.05;56.29;100524.28;5034548;28;66236;-48
2023/07/11 08:31:58;;;;;;;1.23;1.13;;;;;;;34.94;56.32;100508.91;5032387;28;70405;-49
2023/07/11 08:34:31;;;;;;;1.42;1.33;;;;;;;35.06;56.14;100515.06;5037018;28;66465;-48
2023/07/11 08:37:01;;;;;;;1.40;1.23;;;;;;;35.05;55.90;100527.00;5034367;28;70428;-50
2023/07/11 08:39:33;;;;;;;4.93;1.30;;;;;;;35.05;56.09;100524.28;5025095;28;65357;-48
2023/07/11 08:42:34;;;;;;;1.67;1.58;;;;;;;34.50;55.78;100440.03;5032825;28;69444;-50
2023/07/11 08:45:25;;;;;;;1.77;1.20;;;;;;;34.98;56.04;100511.94;5025432;28;66370;-49
2023/07/11 08:48:02;;;;;;;1.40;1.27;;;;;;;35.04;56.14;100510.91;5030895;28;69746;-48
2023/07/11 08:50:48;;;;;;;3.35;1.40;;;;;;;35.01;55.57;100503.25;5023656;28;65467;-49
2023/07/11 08:53:25;;;;;;;3.03;1.50;;;;;;;35.06;55.94;100511.50;5024525;28;70272;-50
2023/07/11 08:56:04;;;;;;;2.28;1.42;;;;;;;35.01;56.23;100528.59;5030433;28;66385;-48
2023/07/11 08:58:38;;;;;;;1.90;1.73;;;;;;;34.84;56.02;100478.81;5035199;28;70565;-49
2023/07/11 09:01:30;;;;;;;1.65;1.55;;;;;;;34.53;56.14;100434.06;5024460;28;66484;-48
2023/07/11 09:04:01;;;;;;;;;;;;;;;34.75;56.14;100496.72;5031163;28;69216;-48
2023/07/11 09:06:42;;;;;;;1.63;1.52;;;;;;;34.94;56.18;100492.56;5033942;28;65940;-49
2023/07/11 09:09:13;;;;;;;1.73;1.63;;;;;;;34.91;55.76;100477.53;5035607;28;69218;-49
2023/07/11 09:11:59;;;;;;;1.52;1.40;;;;;;;34.86;55.85;100471.22;5023579;28;67184;-48
2023/07/11 09:14:33;;;;;;;2.15;1.60;;;;;;;34.96;55.89;100465.84;5053893;28;70435;-49
2023/07/11 09:17:35;;;;;;;2.38;1.52;;;;;;;34.89;56.13;100481.59;5035409;28;67329;-48
2023/07/11 09:20:28;;;;;;;1.90;1.70;;;;;;;34.88;55.94;100472.63;5031407;28;69958;-49
2023/07/11 09:23:17;;;;;;;1.85;1.67;;;;;;;34.92;55.56;100468.28;5024651;28;64809;-49
2023/07/11 09:26:13;;;;;;;2.13;1.73;;;;;;;34.90;55.95;100472.34;5041944;28;70071;-47
2023/07/11 09:28:45;;;;;;;1.92;1.60;;;;;;;34.86;55.82;100450.25;5042176;28;66408;-49
2023/07/11 09:31:20;;;;;;;1.90;1.80;;;;;;;34.92;56.21;100462.00;5042459;28;69249;-49
2023/07/11 09:33:56;;;;;;;1.75;1.65;;;;;;;34.47;55.60;100392.34;5032087;28;66487;-49
2023/07/11 09:36:37;;;;;;;1.92;1.83;;;;;;;34.77;55.89;100448.22;5030100;28;70342;-49
2023/07/11 09:39:20;;;;;;;1.67;1.50;;;;;;;34.88;56.71;100477.22;5036707;28;66568;-48
2023/07/11 09:41:54;;;;;;;2.17;1.90;;;;;;;34.89;55.89;100476.16;5034002;28;70576;-49
2023/07/11 09:44:25;;;;;;;1.48;1.38;;;;;;;34.77;56.26;100457.25;5035874;28;65611;-49
2023/07/11 09:46:58;;;;;;;2.08;1.75;;;;;;;34.81;56.28;100473.88;5033932;28;69728;-50
2023/07/11 09:49:30;;;;;;;1.88;1.73;;;;;;;34.37;56.57;100411.28;5035382;28;65761;-49
2023/07/11 09:52:03;;;;;;;1.90;1.70;;;;;;;34.24;56.47;100399.72;5034093;28;69430;-49
2023/07/11 09:54:46;;;;;;;1.83;1.73;;;;;;;34.35;56.39;100427.03;5032391;28;66546;-49
2023/07/11 09:57:32;;;;;;;1.60;1.50;;;;;;;34.85;56.47;100507.72;5032587;28;69525;-49
2023/07/11 10:00:05;;;;;;;1.67;1.57;;;;;;;34.82;56.27;100519.94;5034116;28;66228;-49
2023/07/11 10:02:46;;;;;;;1.70;1.60;;;;;;;34.79;56.32;100536.81;5035851;28;70439;-48
2023/07/11 10:05:21;;;;;;;2.85;1.73;;;;;;;34.34;56.84;100447.19;5034903;28;66455;-49
2023/07/11 10:08:00;;;;;;;2.30;2.10;;;;;;;34.25;56.59;100439.47;5032637;28;69514;-48
2023/07/11 10:10:32;;;;;;;2.30;1.90;;;;;;;34.77;56.34;100521.78;5032877;28;66832;-48
2023/07/11 10:13:11;;;;;;;1.75;1.65;;;;;;;34.70;56.94;100525.53;5033495;28;69641;-49
2023/07/11 10:15:57;;;;;;;2.28;2.10;;;;;;;34.46;57.04;100478.66;5035931;28;66280;-49
2023/07/11 10:18:31;;;;;;;2.00;1.80;;;;;;;34.65;56.71;100498.22;5039964;28;69893;-49
2023/07/11 10:21:17;;;;;;;2.35;1.70;;;;;;;34.78;56.81;100528.91;5039219;28;65336;-49
2023/07/11 10:24:01;;;;;;;2.78;1.88;;;;;;;34.73;56.81;100526.13;5036331;28;70644;-50
2023/07/11 10:26:38;;;;;;;2.40;2.20;;;;;;;33.89;58.86;100480.88;5036245;28;66684;-46
2023/07/11 10:29:16;;;;;;;8.98;3.20;;;;;;;33.96;61.13;100515.00;5037422;28;68806;-47
2023/07/11 10:32:02;;;;;;;9.10;3.05;;;;;;;33.42;63.17;100440.44;5036703;28;66542;-47
2023/07/11 10:34:56;;;;;;;7.85;3.35;;;;;;;33.33;64.08;100454.44;5042079;28;70383;-48
2023/07/11 10:37:40;;;;;;;8.27;4.40;;;;;;;33.87;64.82;100540.16;5034343;28;67177;-46
2023/07/11 10:40:29;;;;;;;11.32;3.95;;;;;;;33.73;64.91;100532.31;5036357;28;68694;-47
2023/07/11 10:43:25;;;;;;;10.77;3.83;;;;;;;33.83;65.05;100533.59;5040259;28;66100;-47
2023/07/11 10:46:16;;;;;;;12.55;3.85;;;;;;;33.66;66.09;100528.16;5036490;28;70941;-46
2023/07/11 10:48:55;;;;;;;8.68;4.07;;;;;;;33.61;65.56;100520.72;5039692;27;65752;-48
2023/07/11 10:51:46;;;;;;;7.57;4.28;;;;;;;33.75;66.38;100565.56;5040871;28;69967;-48
2023/07/11 10:54:39;;;;;;;6.40;3.70;;;;;;;33.20;66.51;100471.06;5035455;28;65810;-48
2023/07/11 10:57:31;;;;;;;4.03;3.72;;;;;;;33.22;66.69;100490.69;5028786;28;68960;-46
2023/07/11 11:00:17;;;;;;;3.88;3.40;;;;;;;34.08;65.06;100574.81;5015515;28;66040;-46
2023/07/11 11:03:12;;;;;;;6.85;3.53;;;;;;;34.07;64.97;100575.84;5034946;28;70844;-46
2023/07/11 11:06:10;;;;;;;5.43;3.72;;;;;;;34.27;64.93;100594.41;5030756;28;66382;-47
2023/07/11 11:09:03;;;;;;;4.43;3.58;;;;;;;33.81;64.70;100510.16;5037394;28;70518;-46
2023/07/11 11:11:43;;;;;;;9.40;3.75;;;;;;;34.41;64.30;100603.88;5029580;28;66232;-46
2023/07/11 11:14:20;;;;;;;5.20;3.85;;;;;;;34.35;63.95;100583.09;5026372;28;69713;-47
2023/07/11 11:17:22;;;;;;;5.72;3.67;;;;;;;34.20;65.31;100583.69;5034946;28;65825;-46
2023/07/11 11:20:19;;;;;;;3.73;3.43;;;;;;;34.22;65.05;100569.84;5036785;28;69958;-46
2023/07/11 11:23:12;;;;;;;4.80;3.80;;;;;;;34.44;64.41;100595.19;5038964;28;66188;-47
2023/07/11 11:25:42;;;;;;;3.63;3.33;;;;;;;34.46;63.52;100598.50;5032117;28;70359;-48
2023/07/11 11:28:29;;;;;;;5.28;4.20;;;;;;;34.45;64.51;100601.47;5027016;28;66437;-46
2023/07/11 11:31:06;;;;;;;6.70;5.45;;;;;;;33.87;63.97;100518.38;5035712;28;69975;-47
2023/07/11 11:33:43;;;;;;;5.93;5.18;;;;;;;34.43;63.54;100628.09;5034773;28;66186;-47
2023/07/11 11:36:41;;;;;;;6.03;5.10;;;;;;;34.34;64.99;100643.22;5040011;28;69401;-48
2023/07/11 11:39:22;;;;;;;7.40;4.13;;;;;;;34.44;63.30;100665.19;5033864;28;66439;-46
2023/07/11 11:41:58;;;;;;;5.30;4.90;;;;;;;34.42;64.20;100667.31;5031609;28;70457;-46
2023/07/11 11:44:47;;;;;;;5.38;4.90;;;;;;;34.36;65.13;100679.22;5036741;28;66709;-46
2023/07/11 11:47:23;;;;;;;6.10;5.60;;;;;;;34.39;63.95;100674.09;5034192;28;70023;-47
2023/07/11 11:49:58;;;;;;;6.72;5.50;;;;;;;34.24;63.49;100652.91;5037883;28;65649;-47
2023/07/11 11:52:36;;;;;;;6.28;5.47;;;;;;;34.39;63.97;100689.59;5034809;28;70282;-47
2023/07/11 11:55:39;;;;;;;6.13;5.53;;;;;;;34.21;64.97;100705.13;5032850;28;66709;-48
2023/07/11 11:58:17;;;;;;;8.65;6.95;;;;;;;34.32;63.84;100721.63;5029122;28;69809;-47
2023/07/11 12:00:51;;;;;;;9.38;8.18;;;;;;;33.64;63.93;100618.16;5025865;28;66416;-47